Aeroporto :
LOGIN :

Iscrizione | Disclaimer

   EN    FR    IT 

 










Sommario :    VFR   VFR Marginale   IFR   IFR Intensivo   IFR Molto Intensivo
Visibilità : 
Base nubi : 
>= 8 km
>= 3000ft
5 / 8 km
1000 / 3000 ft
1500m / 5 km
500 / 1000 ft
800 / 1500m
200 / 500 ft
< 800m
< 200 ft
Simboli :   Temporali  Nebbia  Neve Forte  Precipitazioni Forti  Vento > 20 kt
SIGMETs :   Varie  Temporali  Ghiacco  Turbolenza  Onda orograficha  Ceneri Vulcaniche






- Altitudine del aeroporto : 297 ft
- Codice IATA : UIP


LFRQ - Quimper Pluguffan

ULTIMO METAR :
  • 271130Z AUTO 27007KT 230V310 3700 -RA BR BKN006 BKN011 OVC021 15/14 Q1011 TEMPO 29015G25KT 2000 RA BKN005 BKN015TCU

METARs OBSOLETI :
  • 271100Z AUTO 29015KT 9999 4400 -RA BKN018 OVC023 16/13 Q1011 TEMPO 29015G25KT 2000 RA BKN005 BKN015TCU
  • 271030Z AUTO 29011KT 260V330 9999 OVC024 16/12 Q1011 TEMPO 29015G25KT 2000 RA BKN005 BKN015TCU
  • 271000Z AUTO 29016KT 250V310 9999 BKN024 BKN029 BKN035 16/11 Q1011 TEMPO 29015G25KT
  • 270930Z AUTO 29013KT 9999 FEW021 BKN028 BKN033 16/12 Q1012 TEMPO 29015G25KT
  • 270900Z AUTO 28010KT 240V300 9999 FEW022 SCT029 OVC043 16/11 Q1012 TEMPO 29015G25KT

TAF TAF LFRQ
Valido dal 27 a 12 ore il 28 a 12 ore UTC


271100Z 2712/2812 31010KT 9999 BKN030
TEMPO 2712/2714 29015G25KT
BECMG 2712/2714 OVC012
TEMPO 2712/2808 2000 RA BKN005 BKN015TCU
BECMG 2714/2716 29015G30KT
PROB40
TEMPO 2723/2805 29020G40KT BKN020
BECMG 2805/2807 34010KT
BECMG 2808/2810 BKN030
PROB30
TEMPO 2808/2812 4000 SHRA BKN020TCU



MetMap, La meteo Aeronautica in un colpo d'occhio ! - Copyright ORBIFLY Dicembre 2007 - Disclaimer

ORBIFLY MET'MAP TEAM :

Programmazione e sviluppo : Alexandra Zaïnal
Concezione : Baudouin d'Aumeries
Supporto tecnico e logistico : Manuel Goepfert
Aiuto : Marc-Olivier Méhu
Aiuto per la traduzione : Arnaldo La Scala




FONTI E CREDITI :

   NOAA